sensor_id;sensor_type;location;lat;lon;timestamp;temperature;humidity
14614;DHT22;7393;51.446;6.800;2023-05-10T00:00:52;14.70;1.00
14614;DHT22;7393;51.446;6.800;2023-05-10T00:03:19;14.70;1.00
14614;DHT22;7393;51.446;6.800;2023-05-10T00:05:46;14.70;1.00
14614;DHT22;7393;51.446;6.800;2023-05-10T00:08:13;14.70;1.00
14614;DHT22;7393;51.446;6.800;2023-05-10T00:10:41;14.70;1.00
14614;DHT22;7393;51.446;6.800;2023-05-10T00:13:07;14.70;1.00
14614;DHT22;7393;51.446;6.800;2023-05-10T00:15:34;14.70;1.00
14614;DHT22;7393;51.446;6.800;2023-05-10T00:18:01;14.70;1.00
14614;DHT22;7393;51.446;6.800;2023-05-10T00:20:28;14.70;1.00
14614;DHT22;7393;51.446;6.800;2023-05-10T00:22:55;14.70;1.00
14614;DHT22;7393;51.446;6.800;2023-05-10T00:25:21;14.60;1.00
14614;DHT22;7393;51.446;6.800;2023-05-10T00:27:50;14.70;1.00
14614;DHT22;7393;51.446;6.800;2023-05-10T00:30:16;14.60;1.00
14614;DHT22;7393;51.446;6.800;2023-05-10T00:32:44;14.60;1.00
14614;DHT22;7393;51.446;6.800;2023-05-10T00:35:11;14.60;1.00
14614;DHT22;7393;51.446;6.800;2023-05-10T00:37:38;14.60;1.00
14614;DHT22;7393;51.446;6.800;2023-05-10T00:40:06;14.60;1.00
14614;DHT22;7393;51.446;6.800;2023-05-10T00:42:33;14.60;1.00
14614;DHT22;7393;51.446;6.800;2023-05-10T00:45:01;14.50;1.00
14614;DHT22;7393;51.446;6.800;2023-05-10T00:47:28;14.50;1.00
14614;DHT22;7393;51.446;6.800;2023-05-10T00:49:55;14.50;1.00
14614;DHT22;7393;51.446;6.800;2023-05-10T00:52:22;14.50;1.00
14614;DHT22;7393;51.446;6.800;2023-05-10T00:54:50;14.40;1.00
14614;DHT22;7393;51.446;6.800;2023-05-10T00:57:17;14.40;1.00
14614;DHT22;7393;51.446;6.800;2023-05-10T00:59:44;14.40;1.00
14614;DHT22;7393;51.446;6.800;2023-05-10T01:02:12;14.40;1.00
14614;DHT22;7393;51.446;6.800;2023-05-10T01:04:39;14.50;1.00
14614;DHT22;7393;51.446;6.800;2023-05-10T01:07:06;14.50;1.00
14614;DHT22;7393;51.446;6.800;2023-05-10T01:09:33;14.40;1.00
14614;DHT22;7393;51.446;6.800;2023-05-10T01:12:01;14.40;1.00
14614;DHT22;7393;51.446;6.800;2023-05-10T01:14:29;14.40;1.00
14614;DHT22;7393;51.446;6.800;2023-05-10T01:16:56;14.40;1.00
14614;DHT22;7393;51.446;6.800;2023-05-10T01:19:26;14.40;1.00
14614;DHT22;7393;51.446;6.800;2023-05-10T01:22:00;14.50;1.00
14614;DHT22;7393;51.446;6.800;2023-05-10T01:24:53;14.50;1.00
14614;DHT22;7393;51.446;6.800;2023-05-10T01:28:02;14.50;1.00
14614;DHT22;7393;51.446;6.800;2023-05-10T01:33:48;14.40;1.00
14614;DHT22;7393;51.446;6.800;2023-05-10T01:36:22;14.40;1.00
14614;DHT22;7393;51.446;6.800;2023-05-10T01:38:55;14.40;1.00
14614;DHT22;7393;51.446;6.800;2023-05-10T01:41:29;14.40;1.00
14614;DHT22;7393;51.446;6.800;2023-05-10T01:44:04;14.50;1.00
14614;DHT22;7393;51.446;6.800;2023-05-10T01:46:35;14.50;1.00
14614;DHT22;7393;51.446;6.800;2023-05-10T01:49:07;14.50;1.00
14614;DHT22;7393;51.446;6.800;2023-05-10T01:51:38;14.50;1.00
14614;DHT22;7393;51.446;6.800;2023-05-10T01:54:06;14.50;1.00
14614;DHT22;7393;51.446;6.800;2023-05-10T01:56:35;14.50;1.00
14614;DHT22;7393;51.446;6.800;2023-05-10T01:59:08;14.50;1.00
14614;DHT22;7393;51.446;6.800;2023-05-10T02:01:36;14.50;1.00
14614;DHT22;7393;51.446;6.800;2023-05-10T02:04:06;14.50;1.00
14614;DHT22;7393;51.446;6.800;2023-05-10T02:06:34;14.40;1.00
14614;DHT22;7393;51.446;6.800;2023-05-10T02:09:02;14.40;1.00
14614;DHT22;7393;51.446;6.800;2023-05-10T02:11:29;14.40;1.00
14614;DHT22;7393;51.446;6.800;2023-05-10T02:13:58;14.40;1.00
14614;DHT22;7393;51.446;6.800;2023-05-10T02:16:26;14.40;1.00
14614;DHT22;7393;51.446;6.800;2023-05-10T02:18:57;14.40;1.00
14614;DHT22;7393;51.446;6.800;2023-05-10T02:21:26;14.40;1.00
14614;DHT22;7393;51.446;6.800;2023-05-10T02:23:54;14.40;1.00
14614;DHT22;7393;51.446;6.800;2023-05-10T02:26:23;14.40;1.00
14614;DHT22;7393;51.446;6.800;2023-05-10T02:28:52;14.40;1.00
14614;DHT22;7393;51.446;6.800;2023-05-10T02:31:20;14.40;1.00
14614;DHT22;7393;51.446;6.800;2023-05-10T02:33:48;14.40;1.00
14614;DHT22;7393;51.446;6.800;2023-05-10T02:36:15;14.40;1.00
14614;DHT22;7393;51.446;6.800;2023-05-10T02:38:45;14.40;1.00
14614;DHT22;7393;51.446;6.800;2023-05-10T02:41:14;14.40;1.00
14614;DHT22;7393;51.446;6.800;2023-05-10T02:43:42;14.40;1.00
14614;DHT22;7393;51.446;6.800;2023-05-10T02:46:09;14.40;1.00
14614;DHT22;7393;51.446;6.800;2023-05-10T02:48:36;14.40;1.00
14614;DHT22;7393;51.446;6.800;2023-05-10T02:51:05;14.40;1.00
14614;DHT22;7393;51.446;6.800;2023-05-10T02:53:35;14.40;1.00
14614;DHT22;7393;51.446;6.800;2023-05-10T02:56:10;14.40;1.00
14614;DHT22;7393;51.446;6.800;2023-05-10T02:58:39;14.40;1.00
14614;DHT22;7393;51.446;6.800;2023-05-10T03:01:05;14.40;1.00
14614;DHT22;7393;51.446;6.800;2023-05-10T03:03:33;14.40;1.00
14614;DHT22;7393;51.446;6.800;2023-05-10T03:05:59;14.40;1.00
14614;DHT22;7393;51.446;6.800;2023-05-10T03:08:27;14.40;1.00
14614;DHT22;7393;51.446;6.800;2023-05-10T03:11:03;14.40;1.00
14614;DHT22;7393;51.446;6.800;2023-05-10T03:13:42;14.40;1.00
14614;DHT22;7393;51.446;6.800;2023-05-10T03:16:15;14.40;1.00
14614;DHT22;7393;51.446;6.800;2023-05-10T03:18:47;14.40;1.00
14614;DHT22;7393;51.446;6.800;2023-05-10T03:21:18;14.30;1.00
14614;DHT22;7393;51.446;6.800;2023-05-10T03:23:50;14.30;1.00
14614;DHT22;7393;51.446;6.800;2023-05-10T03:26:20;14.30;1.00
14614;DHT22;7393;51.446;6.800;2023-05-10T03:28:52;14.30;1.00
14614;DHT22;7393;51.446;6.800;2023-05-10T03:31:19;14.30;1.00
14614;DHT22;7393;51.446;6.800;2023-05-10T03:33:47;14.30;1.00
14614;DHT22;7393;51.446;6.800;2023-05-10T03:36:14;14.40;1.00
14614;DHT22;7393;51.446;6.800;2023-05-10T03:38:41;14.40;1.00
14614;DHT22;7393;51.446;6.800;2023-05-10T03:41:08;14.40;1.00
14614;DHT22;7393;51.446;6.800;2023-05-10T03:43:35;14.40;1.00
14614;DHT22;7393;51.446;6.800;2023-05-10T03:46:03;14.30;1.00
14614;DHT22;7393;51.446;6.800;2023-05-10T03:48:30;14.30;1.00
14614;DHT22;7393;51.446;6.800;2023-05-10T03:50:58;14.30;1.00
14614;DHT22;7393;51.446;6.800;2023-05-10T03:53:25;14.30;1.00
14614;DHT22;7393;51.446;6.800;2023-05-10T03:55:52;14.40;1.00
14614;DHT22;7393;51.446;6.800;2023-05-10T03:58:19;14.40;1.00
14614;DHT22;7393;51.446;6.800;2023-05-10T04:00:46;14.40;1.00
14614;DHT22;7393;51.446;6.800;2023-05-10T04:03:14;14.40;1.00
14614;DHT22;7393;51.446;6.800;2023-05-10T04:05:41;14.40;1.00
14614;DHT22;7393;51.446;6.800;2023-05-10T04:08:08;14.30;1.00
14614;DHT22;7393;51.446;6.800;2023-05-10T04:10:35;14.40;1.00
14614;DHT22;7393;51.446;6.800;2023-05-10T04:13:01;14.40;1.00
14614;DHT22;7393;51.446;6.800;2023-05-10T04:15:28;14.40;1.00
14614;DHT22;7393;51.446;6.800;2023-05-10T04:17:55;14.40;1.00
14614;DHT22;7393;51.446;6.800;2023-05-10T04:20:23;14.40;1.00
14614;DHT22;7393;51.446;6.800;2023-05-10T04:22:50;14.40;1.00
14614;DHT22;7393;51.446;6.800;2023-05-10T04:25:17;14.40;1.00
14614;DHT22;7393;51.446;6.800;2023-05-10T04:27:44;14.40;1.00
14614;DHT22;7393;51.446;6.800;2023-05-10T04:30:11;14.40;1.00
14614;DHT22;7393;51.446;6.800;2023-05-10T04:32:38;14.30;1.00
14614;DHT22;7393;51.446;6.800;2023-05-10T04:35:05;14.30;1.00
14614;DHT22;7393;51.446;6.800;2023-05-10T04:37:33;14.30;1.00
14614;DHT22;7393;51.446;6.800;2023-05-10T04:40:00;14.30;1.00
14614;DHT22;7393;51.446;6.800;2023-05-10T04:42:28;14.30;1.00
14614;DHT22;7393;51.446;6.800;2023-05-10T04:44:55;14.30;1.00
14614;DHT22;7393;51.446;6.800;2023-05-10T04:47:22;14.30;1.00
14614;DHT22;7393;51.446;6.800;2023-05-10T04:49:48;14.30;1.00
14614;DHT22;7393;51.446;6.800;2023-05-10T04:52:15;14.30;1.00
14614;DHT22;7393;51.446;6.800;2023-05-10T04:54:44;14.30;1.00
14614;DHT22;7393;51.446;6.800;2023-05-10T04:57:11;14.30;1.00
14614;DHT22;7393;51.446;6.800;2023-05-10T04:59:38;14.30;1.00
14614;DHT22;7393;51.446;6.800;2023-05-10T05:02:05;14.40;1.00
14614;DHT22;7393;51.446;6.800;2023-05-10T05:04:31;14.40;1.00
14614;DHT22;7393;51.446;6.800;2023-05-10T05:06:58;14.40;1.00
14614;DHT22;7393;51.446;6.800;2023-05-10T05:09:25;14.40;1.00
14614;DHT22;7393;51.446;6.800;2023-05-10T05:11:53;14.40;1.00
14614;DHT22;7393;51.446;6.800;2023-05-10T05:14:20;14.40;1.00
14614;DHT22;7393;51.446;6.800;2023-05-10T05:16:54;14.40;1.00
14614;DHT22;7393;51.446;6.800;2023-05-10T05:19:21;14.40;1.00
14614;DHT22;7393;51.446;6.800;2023-05-10T05:21:55;14.40;1.00
14614;DHT22;7393;51.446;6.800;2023-05-10T05:24:22;14.40;1.00
14614;DHT22;7393;51.446;6.800;2023-05-10T05:26:49;14.40;1.00
14614;DHT22;7393;51.446;6.800;2023-05-10T05:29:17;14.40;1.00
14614;DHT22;7393;51.446;6.800;2023-05-10T05:31:44;14.40;1.00
14614;DHT22;7393;51.446;6.800;2023-05-10T05:34:10;14.50;1.00
14614;DHT22;7393;51.446;6.800;2023-05-10T05:36:37;14.50;1.00
14614;DHT22;7393;51.446;6.800;2023-05-10T05:39:04;14.50;1.00
14614;DHT22;7393;51.446;6.800;2023-05-10T05:41:31;14.50;1.00
14614;DHT22;7393;51.446;6.800;2023-05-10T05:43:58;14.50;1.00
14614;DHT22;7393;51.446;6.800;2023-05-10T05:46:26;14.50;1.00
14614;DHT22;7393;51.446;6.800;2023-05-10T05:48:53;14.60;1.00
14614;DHT22;7393;51.446;6.800;2023-05-10T05:51:19;14.60;1.00
14614;DHT22;7393;51.446;6.800;2023-05-10T05:53:46;14.60;1.00
14614;DHT22;7393;51.446;6.800;2023-05-10T05:56:13;14.60;1.00
14614;DHT22;7393;51.446;6.800;2023-05-10T05:58:40;14.50;1.00
14614;DHT22;7393;51.446;6.800;2023-05-10T06:01:07;14.50;1.00
14614;DHT22;7393;51.446;6.800;2023-05-10T06:03:38;14.60;1.00
14614;DHT22;7393;51.446;6.800;2023-05-10T06:06:05;14.60;1.00
14614;DHT22;7393;51.446;6.800;2023-05-10T06:08:32;14.50;1.00
14614;DHT22;7393;51.446;6.800;2023-05-10T06:10:59;14.50;1.00
14614;DHT22;7393;51.446;6.800;2023-05-10T06:13:26;14.50;1.00
14614;DHT22;7393;51.446;6.800;2023-05-10T06:15:57;14.50;1.00
14614;DHT22;7393;51.446;6.800;2023-05-10T06:18:24;14.50;1.00
14614;DHT22;7393;51.446;6.800;2023-05-10T06:20:52;14.50;1.00
14614;DHT22;7393;51.446;6.800;2023-05-10T06:23:19;14.50;1.00
14614;DHT22;7393;51.446;6.800;2023-05-10T06:25:46;14.50;1.00
14614;DHT22;7393;51.446;6.800;2023-05-10T06:28:12;14.60;1.00
14614;DHT22;7393;51.446;6.800;2023-05-10T06:30:39;14.60;1.00
14614;DHT22;7393;51.446;6.800;2023-05-10T06:33:06;14.60;1.00
14614;DHT22;7393;51.446;6.800;2023-05-10T06:35:33;14.60;1.00
14614;DHT22;7393;51.446;6.800;2023-05-10T06:38:01;14.60;1.00
14614;DHT22;7393;51.446;6.800;2023-05-10T06:40:27;14.60;1.00
14614;DHT22;7393;51.446;6.800;2023-05-10T06:42:54;14.60;1.00
14614;DHT22;7393;51.446;6.800;2023-05-10T06:45:21;14.70;1.00
14614;DHT22;7393;51.446;6.800;2023-05-10T06:47:48;14.60;1.00
14614;DHT22;7393;51.446;6.800;2023-05-10T06:50:14;14.70;1.00
14614;DHT22;7393;51.446;6.800;2023-05-10T06:52:41;14.70;1.00
14614;DHT22;7393;51.446;6.800;2023-05-10T06:55:10;14.70;1.00
14614;DHT22;7393;51.446;6.800;2023-05-10T06:57:37;14.70;1.00
14614;DHT22;7393;51.446;6.800;2023-05-10T07:00:05;14.70;1.00
14614;DHT22;7393;51.446;6.800;2023-05-10T07:02:32;14.70;1.00
14614;DHT22;7393;51.446;6.800;2023-05-10T07:04:59;14.80;1.00
14614;DHT22;7393;51.446;6.800;2023-05-10T07:07:25;14.80;1.00
14614;DHT22;7393;51.446;6.800;2023-05-10T07:09:52;14.80;1.00
14614;DHT22;7393;51.446;6.800;2023-05-10T07:12:20;14.90;1.00
14614;DHT22;7393;51.446;6.800;2023-05-10T07:14:47;14.80;1.00
14614;DHT22;7393;51.446;6.800;2023-05-10T07:17:14;14.90;1.00
14614;DHT22;7393;51.446;6.800;2023-05-10T07:19:40;14.90;1.00
14614;DHT22;7393;51.446;6.800;2023-05-10T07:22:07;14.90;1.00
14614;DHT22;7393;51.446;6.800;2023-05-10T07:24:35;14.90;1.00
14614;DHT22;7393;51.446;6.800;2023-05-10T07:27:02;14.90;1.00
14614;DHT22;7393;51.446;6.800;2023-05-10T07:29:31;14.90;1.00
14614;DHT22;7393;51.446;6.800;2023-05-10T07:31:57;15.00;1.00
14614;DHT22;7393;51.446;6.800;2023-05-10T07:34:24;14.90;1.00
14614;DHT22;7393;51.446;6.800;2023-05-10T07:36:51;14.90;1.00
14614;DHT22;7393;51.446;6.800;2023-05-10T07:39:18;15.00;1.00
14614;DHT22;7393;51.446;6.800;2023-05-10T07:41:45;15.00;1.00
14614;DHT22;7393;51.446;6.800;2023-05-10T07:44:12;15.00;1.00
14614;DHT22;7393;51.446;6.800;2023-05-10T07:46:40;15.00;1.00
14614;DHT22;7393;51.446;6.800;2023-05-10T07:49:07;14.90;1.00
14614;DHT22;7393;51.446;6.800;2023-05-10T07:51:34;15.00;1.00
14614;DHT22;7393;51.446;6.800;2023-05-10T07:54:01;15.00;1.00
14614;DHT22;7393;51.446;6.800;2023-05-10T07:56:30;15.00;1.00
14614;DHT22;7393;51.446;6.800;2023-05-10T07:58:58;15.00;1.00
14614;DHT22;7393;51.446;6.800;2023-05-10T08:01:25;15.10;1.00
14614;DHT22;7393;51.446;6.800;2023-05-10T08:03:53;15.10;1.00
14614;DHT22;7393;51.446;6.800;2023-05-10T08:06:21;15.10;1.00
14614;DHT22;7393;51.446;6.800;2023-05-10T08:08:48;15.20;1.00
14614;DHT22;7393;51.446;6.800;2023-05-10T08:11:16;15.20;1.00
14614;DHT22;7393;51.446;6.800;2023-05-10T08:13:43;15.30;1.00
14614;DHT22;7393;51.446;6.800;2023-05-10T08:16:10;15.30;1.00
14614;DHT22;7393;51.446;6.800;2023-05-10T08:18:37;15.30;1.00
14614;DHT22;7393;51.446;6.800;2023-05-10T08:21:06;15.30;99.90
14614;DHT22;7393;51.446;6.800;2023-05-10T08:23:33;15.40;99.90
14614;DHT22;7393;51.446;6.800;2023-05-10T08:26:00;15.40;99.90
14614;DHT22;7393;51.446;6.800;2023-05-10T08:28:27;15.40;1.00
14614;DHT22;7393;51.446;6.800;2023-05-10T08:30:54;15.50;1.00
14614;DHT22;7393;51.446;6.800;2023-05-10T08:33:20;15.60;1.00
14614;DHT22;7393;51.446;6.800;2023-05-10T08:35:47;15.60;1.00
14614;DHT22;7393;51.446;6.800;2023-05-10T08:38:15;15.70;99.90
14614;DHT22;7393;51.446;6.800;2023-05-10T08:40:43;15.70;90.50
14614;DHT22;7393;51.446;6.800;2023-05-10T08:43:12;15.80;1.00
14614;DHT22;7393;51.446;6.800;2023-05-10T08:45:41;15.80;1.00
14614;DHT22;7393;51.446;6.800;2023-05-10T08:48:09;15.90;1.00
14614;DHT22;7393;51.446;6.800;2023-05-10T08:50:37;16.00;99.90
14614;DHT22;7393;51.446;6.800;2023-05-10T08:53:05;16.00;1.00
14614;DHT22;7393;51.446;6.800;2023-05-10T08:55:34;16.10;1.00
14614;DHT22;7393;51.446;6.800;2023-05-10T08:58:04;16.20;47.50
14614;DHT22;7393;51.446;6.800;2023-05-10T09:00:31;16.30;1.00
14614;DHT22;7393;51.446;6.800;2023-05-10T09:02:59;16.40;99.90
14614;DHT22;7393;51.446;6.800;2023-05-10T09:05:26;16.50;99.90
14614;DHT22;7393;51.446;6.800;2023-05-10T09:07:53;16.50;1.00
14614;DHT22;7393;51.446;6.800;2023-05-10T09:10:20;16.50;1.00
14614;DHT22;7393;51.446;6.800;2023-05-10T09:12:48;16.60;99.90
14614;DHT22;7393;51.446;6.800;2023-05-10T09:15:15;16.60;1.00
14614;DHT22;7393;51.446;6.800;2023-05-10T09:17:45;16.50;99.90
14614;DHT22;7393;51.446;6.800;2023-05-10T09:20:12;16.50;1.00
14614;DHT22;7393;51.446;6.800;2023-05-10T09:22:38;16.50;2.50
14614;DHT22;7393;51.446;6.800;2023-05-10T09:25:06;16.60;1.00
14614;DHT22;7393;51.446;6.800;2023-05-10T09:27:33;16.60;1.00
14614;DHT22;7393;51.446;6.800;2023-05-10T09:30:02;16.50;99.90
14614;DHT22;7393;51.446;6.800;2023-05-10T09:32:39;16.50;76.40
14614;DHT22;7393;51.446;6.800;2023-05-10T09:35:10;16.50;99.90
14614;DHT22;7393;51.446;6.800;2023-05-10T09:37:38;16.50;99.90
14614;DHT22;7393;51.446;6.800;2023-05-10T09:40:07;16.50;1.00
14614;DHT22;7393;51.446;6.800;2023-05-10T09:42:34;16.50;99.90
14614;DHT22;7393;51.446;6.800;2023-05-10T09:45:04;16.50;99.90
14614;DHT22;7393;51.446;6.800;2023-05-10T09:47:32;16.50;99.90
14614;DHT22;7393;51.446;6.800;2023-05-10T09:50:00;16.50;99.90
14614;DHT22;7393;51.446;6.800;2023-05-10T09:52:30;16.50;1.00
14614;DHT22;7393;51.446;6.800;2023-05-10T09:54:57;16.40;1.00
14614;DHT22;7393;51.446;6.800;2023-05-10T09:57:25;16.40;99.90
14614;DHT22;7393;51.446;6.800;2023-05-10T09:59:52;16.50;99.90
14614;DHT22;7393;51.446;6.800;2023-05-10T10:02:21;16.50;1.00
14614;DHT22;7393;51.446;6.800;2023-05-10T10:04:55;16.50;1.00
14614;DHT22;7393;51.446;6.800;2023-05-10T10:07:23;16.50;1.00
14614;DHT22;7393;51.446;6.800;2023-05-10T10:09:51;16.40;1.00
14614;DHT22;7393;51.446;6.800;2023-05-10T10:12:18;16.30;1.00
14614;DHT22;7393;51.446;6.800;2023-05-10T10:14:46;16.30;1.00
14614;DHT22;7393;51.446;6.800;2023-05-10T10:17:13;16.20;1.00
14614;DHT22;7393;51.446;6.800;2023-05-10T10:19:42;16.20;1.00
14614;DHT22;7393;51.446;6.800;2023-05-10T10:22:09;16.10;1.00
14614;DHT22;7393;51.446;6.800;2023-05-10T10:24:37;16.10;1.00
14614;DHT22;7393;51.446;6.800;2023-05-10T10:27:14;16.00;1.00
14614;DHT22;7393;51.446;6.800;2023-05-10T10:29:50;16.10;1.00
14614;DHT22;7393;51.446;6.800;2023-05-10T10:32:24;16.10;1.00
14614;DHT22;7393;51.446;6.800;2023-05-10T10:34:54;16.10;1.00
14614;DHT22;7393;51.446;6.800;2023-05-10T10:37:21;16.10;99.90
14614;DHT22;7393;51.446;6.800;2023-05-10T10:39:48;16.10;1.00
14614;DHT22;7393;51.446;6.800;2023-05-10T10:42:45;16.10;10.80
14614;DHT22;7393;51.446;6.800;2023-05-10T10:45:12;16.10;1.00
14614;DHT22;7393;51.446;6.800;2023-05-10T10:47:39;16.10;1.00
14614;DHT22;7393;51.446;6.800;2023-05-10T10:50:09;16.20;98.00
14614;DHT22;7393;51.446;6.800;2023-05-10T10:52:39;16.10;99.90
14614;DHT22;7393;51.446;6.800;2023-05-10T10:55:07;16.20;1.00
14614;DHT22;7393;51.446;6.800;2023-05-10T10:57:43;16.10;99.90
14614;DHT22;7393;51.446;6.800;2023-05-10T11:00:23;16.10;1.00
14614;DHT22;7393;51.446;6.800;2023-05-10T11:02:51;16.20;99.90
14614;DHT22;7393;51.446;6.800;2023-05-10T11:05:38;16.20;1.00
14614;DHT22;7393;51.446;6.800;2023-05-10T11:08:13;16.20;1.00
14614;DHT22;7393;51.446;6.800;2023-05-10T11:11:02;16.10;99.90
14614;DHT22;7393;51.446;6.800;2023-05-10T11:13:31;16.10;99.90
14614;DHT22;7393;51.446;6.800;2023-05-10T11:15:58;16.20;99.90
14614;DHT22;7393;51.446;6.800;2023-05-10T11:18:27;16.30;99.90
14614;DHT22;7393;51.446;6.800;2023-05-10T11:20:57;16.30;99.90
14614;DHT22;7393;51.446;6.800;2023-05-10T11:23:30;16.40;99.90
14614;DHT22;7393;51.446;6.800;2023-05-10T11:25:57;16.40;1.00
14614;DHT22;7393;51.446;6.800;2023-05-10T11:28:26;16.60;1.00
14614;DHT22;7393;51.446;6.800;2023-05-10T11:30:52;16.60;25.80
14614;DHT22;7393;51.446;6.800;2023-05-10T11:33:19;16.70;1.00
14614;DHT22;7393;51.446;6.800;2023-05-10T11:35:46;16.80;1.00
14614;DHT22;7393;51.446;6.800;2023-05-10T11:38:15;16.80;1.00
14614;DHT22;7393;51.446;6.800;2023-05-10T11:40:42;16.80;99.90
14614;DHT22;7393;51.446;6.800;2023-05-10T11:43:09;16.90;1.00
14614;DHT22;7393;51.446;6.800;2023-05-10T11:45:42;16.90;1.00
14614;DHT22;7393;51.446;6.800;2023-05-10T11:48:09;17.00;99.90
14614;DHT22;7393;51.446;6.800;2023-05-10T11:50:35;17.10;99.90
14614;DHT22;7393;51.446;6.800;2023-05-10T11:53:02;17.10;1.00
14614;DHT22;7393;51.446;6.800;2023-05-10T11:55:33;17.10;1.00
14614;DHT22;7393;51.446;6.800;2023-05-10T11:58:01;17.10;1.00
14614;DHT22;7393;51.446;6.800;2023-05-10T12:00:29;17.10;1.00
14614;DHT22;7393;51.446;6.800;2023-05-10T12:02:56;17.10;99.90
14614;DHT22;7393;51.446;6.800;2023-05-10T12:05:24;17.10;1.00
14614;DHT22;7393;51.446;6.800;2023-05-10T12:07:51;17.20;1.00
14614;DHT22;7393;51.446;6.800;2023-05-10T12:10:25;17.20;1.00
14614;DHT22;7393;51.446;6.800;2023-05-10T12:12:53;17.20;99.90
14614;DHT22;7393;51.446;6.800;2023-05-10T12:15:22;17.20;99.90
14614;DHT22;7393;51.446;6.800;2023-05-10T12:17:49;17.20;1.00
14614;DHT22;7393;51.446;6.800;2023-05-10T12:20:17;17.10;8.00
14614;DHT22;7393;51.446;6.800;2023-05-10T12:22:45;17.10;99.90
14614;DHT22;7393;51.446;6.800;2023-05-10T12:25:12;17.10;34.80
14614;DHT22;7393;51.446;6.800;2023-05-10T12:27:39;17.10;1.00
14614;DHT22;7393;51.446;6.800;2023-05-10T12:30:08;17.10;43.00
14614;DHT22;7393;51.446;6.800;2023-05-10T12:32:39;17.10;1.00
14614;DHT22;7393;51.446;6.800;2023-05-10T12:35:07;17.20;1.00
14614;DHT22;7393;51.446;6.800;2023-05-10T12:37:34;17.30;1.00
14614;DHT22;7393;51.446;6.800;2023-05-10T12:40:05;17.30;1.00
14614;DHT22;7393;51.446;6.800;2023-05-10T12:42:33;17.40;1.00
14614;DHT22;7393;51.446;6.800;2023-05-10T12:45:01;17.40;1.00
14614;DHT22;7393;51.446;6.800;2023-05-10T12:47:29;17.50;1.00
14614;DHT22;7393;51.446;6.800;2023-05-10T12:49:56;17.50;1.00
14614;DHT22;7393;51.446;6.800;2023-05-10T12:52:22;17.70;1.00
14614;DHT22;7393;51.446;6.800;2023-05-10T12:54:49;17.90;1.00
14614;DHT22;7393;51.446;6.800;2023-05-10T12:57:16;18.20;1.00
14614;DHT22;7393;51.446;6.800;2023-05-10T12:59:43;18.40;1.00
14614;DHT22;7393;51.446;6.800;2023-05-10T13:02:10;18.60;1.00
14614;DHT22;7393;51.446;6.800;2023-05-10T13:04:38;18.80;1.00
14614;DHT22;7393;51.446;6.800;2023-05-10T13:07:05;19.10;99.90
14614;DHT22;7393;51.446;6.800;2023-05-10T13:09:32;19.30;99.90
14614;DHT22;7393;51.446;6.800;2023-05-10T13:11:59;19.40;99.90
14614;DHT22;7393;51.446;6.800;2023-05-10T13:14:26;19.60;99.90
14614;DHT22;7393;51.446;6.800;2023-05-10T13:16:53;19.70;99.90
14614;DHT22;7393;51.446;6.800;2023-05-10T13:19:20;19.80;99.90
14614;DHT22;7393;51.446;6.800;2023-05-10T13:21:48;19.80;99.90
14614;DHT22;7393;51.446;6.800;2023-05-10T13:24:15;19.70;99.90
14614;DHT22;7393;51.446;6.800;2023-05-10T13:26:42;19.80;99.90
14614;DHT22;7393;51.446;6.800;2023-05-10T13:29:09;19.80;99.90
14614;DHT22;7393;51.446;6.800;2023-05-10T13:31:36;20.00;99.90
14614;DHT22;7393;51.446;6.800;2023-05-10T13:34:03;20.00;99.90
14614;DHT22;7393;51.446;6.800;2023-05-10T13:36:30;20.20;99.90
14614;DHT22;7393;51.446;6.800;2023-05-10T13:38:58;20.30;99.90
14614;DHT22;7393;51.446;6.800;2023-05-10T13:41:26;20.50;99.90
14614;DHT22;7393;51.446;6.800;2023-05-10T13:43:53;20.50;99.90
14614;DHT22;7393;51.446;6.800;2023-05-10T13:46:20;20.50;99.90
14614;DHT22;7393;51.446;6.800;2023-05-10T13:48:47;20.40;99.90
14614;DHT22;7393;51.446;6.800;2023-05-10T13:51:14;20.50;99.90
14614;DHT22;7393;51.446;6.800;2023-05-10T13:53:40;20.60;99.90
14614;DHT22;7393;51.446;6.800;2023-05-10T13:56:08;20.60;98.90
14614;DHT22;7393;51.446;6.800;2023-05-10T13:58:35;20.70;83.70
14614;DHT22;7393;51.446;6.800;2023-05-10T14:01:02;20.70;55.50
14614;DHT22;7393;51.446;6.800;2023-05-10T14:03:30;20.60;65.70
14614;DHT22;7393;51.446;6.800;2023-05-10T14:05:58;20.60;60.70
14614;DHT22;7393;51.446;6.800;2023-05-10T14:08:24;20.50;64.50
14614;DHT22;7393;51.446;6.800;2023-05-10T14:10:52;20.50;71.00
14614;DHT22;7393;51.446;6.800;2023-05-10T14:13:20;20.60;81.80
14614;DHT22;7393;51.446;6.800;2023-05-10T14:15:47;20.60;84.50
14614;DHT22;7393;51.446;6.800;2023-05-10T14:18:14;20.70;87.50
14614;DHT22;7393;51.446;6.800;2023-05-10T14:20:40;20.70;57.30
14614;DHT22;7393;51.446;6.800;2023-05-10T14:23:07;20.60;60.90
14614;DHT22;7393;51.446;6.800;2023-05-10T14:25:34;20.70;55.00
14614;DHT22;7393;51.446;6.800;2023-05-10T14:28:01;20.70;53.20
14614;DHT22;7393;51.446;6.800;2023-05-10T14:30:29;20.70;49.60
14614;DHT22;7393;51.446;6.800;2023-05-10T14:32:56;20.70;58.20
14614;DHT22;7393;51.446;6.800;2023-05-10T14:35:23;20.80;36.70
14614;DHT22;7393;51.446;6.800;2023-05-10T14:37:50;20.80;16.60
14614;DHT22;7393;51.446;6.800;2023-05-10T14:40:17;20.80;29.80
14614;DHT22;7393;51.446;6.800;2023-05-10T14:42:44;20.80;25.10
14614;DHT22;7393;51.446;6.800;2023-05-10T14:45:11;20.70;21.50
14614;DHT22;7393;51.446;6.800;2023-05-10T14:47:39;20.70;15.30
14614;DHT22;7393;51.446;6.800;2023-05-10T14:50:07;20.70;17.00
14614;DHT22;7393;51.446;6.800;2023-05-10T14:52:34;20.80;22.40
14614;DHT22;7393;51.446;6.800;2023-05-10T14:55:01;20.80;11.50
14614;DHT22;7393;51.446;6.800;2023-05-10T14:57:28;20.80;19.60
14614;DHT22;7393;51.446;6.800;2023-05-10T14:59:55;20.80;10.50
14614;DHT22;7393;51.446;6.800;2023-05-10T15:02:22;20.80;5.40
14614;DHT22;7393;51.446;6.800;2023-05-10T15:04:50;20.70;10.30
14614;DHT22;7393;51.446;6.800;2023-05-10T15:07:17;20.70;27.20
14614;DHT22;7393;51.446;6.800;2023-05-10T15:09:44;20.60;4.90
14614;DHT22;7393;51.446;6.800;2023-05-10T15:12:10;20.60;4.80
14614;DHT22;7393;51.446;6.800;2023-05-10T15:14:37;20.60;5.20
14614;DHT22;7393;51.446;6.800;2023-05-10T15:17:06;20.50;2.10
14614;DHT22;7393;51.446;6.800;2023-05-10T15:19:34;20.40;10.30
14614;DHT22;7393;51.446;6.800;2023-05-10T15:22:03;20.40;10.70
14614;DHT22;7393;51.446;6.800;2023-05-10T15:24:30;20.40;2.80
14614;DHT22;7393;51.446;6.800;2023-05-10T15:26:57;20.40;10.20
14614;DHT22;7393;51.446;6.800;2023-05-10T15:29:24;20.20;17.00
14614;DHT22;7393;51.446;6.800;2023-05-10T15:31:51;20.20;21.50
14614;DHT22;7393;51.446;6.800;2023-05-10T15:34:18;20.20;12.20
14614;DHT22;7393;51.446;6.800;2023-05-10T15:36:45;20.20;14.00
14614;DHT22;7393;51.446;6.800;2023-05-10T15:39:13;20.10;12.20
14614;DHT22;7393;51.446;6.800;2023-05-10T15:41:40;19.90;1.00
14614;DHT22;7393;51.446;6.800;2023-05-10T15:44:07;19.80;1.00
14614;DHT22;7393;51.446;6.800;2023-05-10T15:46:34;19.50;1.00
14614;DHT22;7393;51.446;6.800;2023-05-10T15:49:00;19.30;1.00
14614;DHT22;7393;51.446;6.800;2023-05-10T15:51:28;19.20;6.10
14614;DHT22;7393;51.446;6.800;2023-05-10T15:53:54;19.00;32.50
14614;DHT22;7393;51.446;6.800;2023-05-10T15:56:22;18.80;67.50
14614;DHT22;7393;51.446;6.800;2023-05-10T15:58:49;18.60;99.90
14614;DHT22;7393;51.446;6.800;2023-05-10T16:01:16;18.50;99.90
14614;DHT22;7393;51.446;6.800;2023-05-10T16:03:43;18.30;99.90
14614;DHT22;7393;51.446;6.800;2023-05-10T16:06:09;18.10;99.90